Time;durP1;ratioP1;P1;durP2;ratioP2;P2;SDS_P1;SDS_P2;PMS_P1;PMS_P2;Temp;Humidity;BMP_temperature;BMP_pressure;BME280_temperature;BME280_humidity;BME280_pressure;Samples;Min_cycle;Max_cycle;Signal;HPM_P1;HPM_P2
2023/08/25 00:00:41;;;;;;;30.73;27.45;;;21.50;99.90;;;;;;4998959;28;20038;-94
2023/08/25 00:03:25;;;;;;;32.33;24.90;;;22.30;99.90;;;;;;5016476;28;20105;-94
2023/08/25 00:05:54;;;;;;;31.02;27.67;;;21.50;99.90;;;;;;5017029;28;20054;-94
2023/08/25 00:08:21;;;;;;;31.40;26.40;;;22.10;99.90;;;;;;5017743;28;20030;-93
2023/08/25 00:11:05;;;;;;;30.40;27.10;;;21.50;99.90;;;;;;5023532;28;20076;-94
2023/08/25 00:13:35;;;;;;;27.60;24.83;;;21.50;99.90;;;;;;5017027;28;20026;-92
2023/08/25 00:16:09;;;;;;;31.23;27.97;;;21.50;99.90;;;;;;5017932;28;20440;-93
2023/08/25 00:18:35;;;;;;;31.98;28.23;;;21.50;99.90;;;;;;4999743;28;20030;-92
2023/08/25 00:21:20;;;;;;;29.48;26.48;;;21.50;99.90;;;;;;4995393;28;20390;-94
2023/08/25 00:23:46;;;;;;;33.15;28.27;;;21.50;99.90;;;;;;5003726;28;20041;-95
2023/08/25 00:26:26;;;;;;;34.10;29.17;;;21.80;99.90;;;;;;5015704;28;20124;-94
2023/08/25 00:28:52;;;;;;;30.88;26.98;;;21.70;99.90;;;;;;5021613;28;20552;-92
2023/08/25 00:31:33;;;;;;;32.55;29.27;;;21.40;99.90;;;;;;5017235;28;20025;-94
2023/08/25 00:34:05;;;;;;;34.30;29.90;;;21.50;99.90;;;;;;5000662;28;20034;-91
2023/08/25 00:36:33;;;;;;;33.47;28.48;;;21.40;99.90;;;;;;4995275;28;20037;-92
2023/08/25 00:39:15;;;;;;;34.67;28.38;;;21.50;99.90;;;;;;5003949;28;20054;-93
2023/08/25 00:41:41;;;;;;;36.67;31.42;;;21.50;99.90;;;;;;5011453;28;20543;-94
2023/08/25 00:44:07;;;;;;;31.45;28.05;;;21.50;99.90;;;;;;5014544;28;20026;-94
2023/08/25 00:46:48;;;;;;;34.15;30.63;;;21.50;99.90;;;;;;5014449;28;20049;-92
2023/08/25 00:49:27;;;;;;;30.83;27.52;;;21.90;99.90;;;;;;5016972;28;20072;-94
2023/08/25 00:51:53;;;;;;;37.88;30.50;;;21.50;99.90;;;;;;5014633;28;20026;-93
2023/08/25 00:54:23;;;;;;;35.08;30.48;;;21.60;99.90;;;;;;5015609;28;20104;-93
2023/08/25 00:57:05;;;;;;;40.13;31.63;;;21.50;99.90;;;;;;5013235;28;20038;-92
2023/08/25 00:59:31;;;;;;;32.28;29.05;;;20.70;99.90;;;;;;5016868;28;20023;-91
2023/08/25 01:01:57;;;;;;;30.27;27.27;;;21.50;99.90;;;;;;5006079;28;20011;-95
2023/08/25 01:04:44;;;;;;;30.42;26.67;;;21.50;99.90;;;;;;4996100;28;20383;-93
2023/08/25 01:07:10;;;;;;;32.80;29.38;;;21.40;99.90;;;;;;5009772;28;20026;-93
2023/08/25 01:09:54;;;;;;;29.90;27.02;;;21.50;99.90;;;;;;5001844;28;20109;-93
2023/08/25 01:12:46;;;;;;;34.38;30.02;;;21.40;99.90;;;;;;5017836;28;20010;-95
2023/08/25 01:15:35;;;;;;;31.17;27.73;;;21.40;99.90;;;;;;4948832;28;20363;-94
2023/08/25 01:18:36;;;;;;;38.42;31.90;;;21.50;99.90;;;;;;4994732;28;20030;-93
2023/08/25 01:21:08;;;;;;;33.25;29.80;;;21.40;99.90;;;;;;4994253;28;20157;-93
2023/08/25 01:23:57;;;;;;;34.75;31.23;;;21.40;99.90;;;;;;4986245;28;20026;-92
2023/08/25 01:26:24;;;;;;;35.10;31.48;;;21.30;99.90;;;;;;4977562;28;20031;-92
2023/08/25 01:29:08;;;;;;;31.27;28.17;;;22.30;99.90;;;;;;5007961;28;20074;-93
2023/08/25 01:31:49;;;;;;;37.70;30.90;;;22.40;99.90;;;;;;5010148;28;20033;-93
2023/08/25 01:34:26;;;;;;;34.53;30.98;;;21.30;99.90;;;;;;5002020;28;20034;-94
2023/08/25 01:37:19;;;;;;;35.30;31.55;;;21.30;99.90;;;;;;4997331;28;20046;-93
2023/08/25 01:39:47;;;;;;;35.42;31.08;;;21.40;99.90;;;;;;4997435;28;20029;-93
2023/08/25 01:42:27;;;;;;;35.75;31.38;;;21.30;99.90;;;;;;5006157;28;20031;-92
2023/08/25 01:44:53;;;;;;;41.42;34.20;;;21.30;99.90;;;;;;5000442;28;20050;-92
2023/08/25 01:47:40;;;;;;;36.63;32.67;;;22.30;99.90;;;;;;5033698;28;20038;-93
2023/08/25 01:50:23;;;;;;;41.22;34.13;;;22.30;99.90;;;;;;5016593;28;20103;-93
2023/08/25 01:52:49;;;;;;;38.47;34.00;;;21.30;99.90;;;;;;4994860;28;20030;-91
2023/08/25 01:55:27;;;;;;;35.58;30.98;;;21.30;99.90;;;;;;4994190;28;20026;-92
2023/08/25 01:58:05;;;;;;;39.58;32.78;;;21.30;99.90;;;;;;5014909;28;20053;-91
2023/08/25 02:00:31;;;;;;;37.05;32.90;;;21.30;99.90;;;;;;5016128;28;20022;-93
2023/08/25 02:03:15;;;;;;;36.90;31.35;;;21.20;99.90;;;;;;5013973;28;20033;-92
2023/08/25 02:05:53;;;;;;;37.88;31.73;;;22.30;99.90;;;;;;5011983;28;20124;-92
2023/08/25 02:08:18;;;;;;;36.03;30.45;;;21.30;99.90;;;;;;4994618;28;20050;-93
2023/08/25 02:11:03;;;;;;;42.20;33.47;;;21.60;99.90;;;;;;4995921;28;20030;-93
2023/08/25 02:13:29;;;;;;;36.15;32.25;;;21.20;99.90;;;;;;4995581;28;20062;-93
2023/08/25 02:16:09;;;;;;;41.38;33.58;;;21.80;99.90;;;;;;4997830;28;20038;-94
2023/08/25 02:18:35;;;;;;;41.50;34.15;;;21.20;99.90;;;;;;5005788;28;20394;-89
2023/08/25 02:21:10;;;;;;;38.25;33.83;;;21.20;99.90;;;;;;5015575;28;20040;-86
2023/08/25 02:23:50;;;;;;;40.50;32.85;;;21.30;99.90;;;;;;5015693;28;20041;-93
2023/08/25 02:26:35;;;;;;;42.38;34.15;;;21.30;99.90;;;;;;5016788;28;20030;-92
2023/08/25 02:29:00;;;;;;;40.50;31.25;;;20.80;99.90;;;;;;4996593;28;20031;-92
2023/08/25 02:31:41;;;;;;;41.13;31.52;;;21.30;99.90;;;;;;4997372;28;20026;-94
2023/08/25 02:34:07;;;;;;;47.97;34.78;;;21.20;99.90;;;;;;4997431;28;20026;-92
2023/08/25 02:36:32;;;;;;;45.05;36.08;;;21.30;99.90;;;;;;5032095;28;20073;-92
2023/08/25 02:38:58;;;;;;;44.20;33.90;;;21.30;99.90;;;;;;5023961;28;20113;-93
2023/08/25 02:41:31;;;;;;;43.35;32.92;;;21.60;99.90;;;;;;5010251;28;20057;-93
2023/08/25 02:44:09;;;;;;;48.08;36.15;;;22.30;99.90;;;;;;4999064;28;20470;-94
2023/08/25 02:46:34;;;;;;;40.65;33.88;;;22.20;99.90;;;;;;4997013;28;20076;-92
2023/08/25 02:49:00;;;;;;;43.72;33.55;;;22.20;99.90;;;;;;4996968;28;20174;-92
2023/08/25 02:51:38;;;;;;;43.60;34.10;;;21.30;99.90;;;;;;5012124;28;20017;-92
2023/08/25 02:54:13;;;;;;;42.85;34.40;;;21.20;99.90;;;;;;5008612;28;20031;-92
2023/08/25 02:56:38;;;;;;;38.80;33.90;;;21.20;99.90;;;;;;4999368;28;20061;-93
2023/08/25 02:59:04;;;;;;;38.22;31.10;;;21.20;99.90;;;;;;5022711;28;20457;-91
2023/08/25 03:01:48;;;;;;;37.28;32.80;;;21.70;99.90;;;;;;5029429;28;20018;-92
2023/08/25 03:04:14;;;;;;;36.97;30.80;;;22.30;99.90;;;;;;5018866;28;20022;-92
2023/08/25 03:06:40;;;;;;;45.97;36.47;;;21.20;99.90;;;;;;5035090;28;20094;-94
2023/08/25 03:09:14;;;;;;;41.55;35.22;;;22.10;99.90;;;;;;5018537;28;20099;-94
2023/08/25 03:11:39;;;;;;;39.90;35.35;;;21.20;99.90;;;;;;5023666;28;20026;-94
2023/08/25 03:14:26;;;;;;;41.40;35.38;;;21.50;99.90;;;;;;5017124;28;20102;-92
2023/08/25 03:16:52;;;;;;;39.03;32.55;;;21.20;99.90;;;;;;5009339;28;20092;-92
2023/08/25 03:19:18;;;;;;;44.33;36.08;;;21.60;99.90;;;;;;5013374;28;20030;-92
2023/08/25 03:21:55;;;;;;;43.28;34.40;;;21.30;99.90;;;;;;5015138;28;20027;-93
2023/08/25 03:24:21;;;;;;;42.60;36.05;;;21.50;99.90;;;;;;5018967;28;20041;-92
2023/08/25 03:27:42;;;;;;;41.90;34.60;;;21.30;99.90;;;;;;5023900;28;20030;-94
2023/08/25 03:30:09;;;;;;;42.40;35.58;;;20.70;99.90;;;;;;5015431;28;20054;-94
2023/08/25 03:32:35;;;;;;;37.53;31.75;;;21.30;99.90;;;;;;4998664;28;20026;-94
2023/08/25 03:35:11;;;;;;;45.45;37.05;;;21.20;99.90;;;;;;5013645;28;20041;-93
2023/08/25 03:37:36;;;;;;;43.97;33.65;;;21.20;99.90;;;;;;5016938;28;20030;-93
2023/08/25 03:40:02;;;;;;;44.90;36.03;;;21.80;99.90;;;;;;5025661;28;20028;-93
2023/08/25 03:42:34;;;;;;;48.10;36.60;;;21.30;99.90;;;;;;5021336;28;20033;-90
2023/08/25 03:45:00;;;;;;;39.05;34.13;;;21.30;99.90;;;;;;4999323;28;20034;-92
2023/08/25 03:47:43;;;;;;;43.90;35.85;;;22.00;99.90;;;;;;5016235;28;20080;-92
2023/08/25 03:50:10;;;;;;;47.33;35.67;;;22.20;99.90;;;;;;5020203;28;20030;-91
2023/08/25 03:52:36;;;;;;;40.58;33.70;;;21.30;99.90;;;;;;5016984;28;20022;-94
2023/08/25 03:55:18;;;;;;;39.47;34.40;;;21.30;99.90;;;;;;5015284;28;20113;-95
2023/08/25 03:57:43;;;;;;;42.25;34.42;;;21.30;99.90;;;;;;5012870;28;20030;-93
2023/08/25 04:00:09;;;;;;;46.10;32.33;;;21.30;99.90;;;;;;5015850;28;20377;-94
2023/08/25 04:02:54;;;;;;;46.08;33.20;;;21.30;99.90;;;;;;5015208;28;20021;-92
2023/08/25 04:05:28;;;;;;;35.80;31.65;;;21.30;99.90;;;;;;5015526;28;20267;-94
2023/08/25 04:07:55;;;;;;;39.75;32.08;;;21.30;99.90;;;;;;5015316;28;20548;-93
2023/08/25 04:10:21;;;;;;;42.28;33.72;;;21.30;99.90;;;;;;5020835;28;20029;-92
2023/08/25 04:13:09;;;;;;;44.30;32.83;;;21.30;99.90;;;;;;5038534;28;20049;-92
2023/08/25 04:15:35;;;;;;;42.35;35.60;;;21.30;99.90;;;;;;4997672;28;20074;-92
2023/08/25 04:18:20;;;;;;;44.88;35.40;;;21.30;99.90;;;;;;4995087;28;20364;-93
2023/08/25 04:20:46;;;;;;;45.45;35.55;;;21.20;99.90;;;;;;5011457;28;20052;-93
2023/08/25 04:23:24;;;;;;;39.28;32.38;;;21.50;99.90;;;;;;5014989;28;20576;-93
2023/08/25 04:26:11;;;;;;;45.95;35.35;;;21.30;99.90;;;;;;5015357;28;20018;-95
2023/08/25 04:28:37;;;;;;;41.42;32.97;;;21.30;99.90;;;;;;5021907;28;20026;-95
2023/08/25 04:31:45;;;;;;;41.88;33.92;;;21.30;99.90;;;;;;5025292;28;20002;-94
2023/08/25 04:34:11;;;;;;;46.38;34.90;;;21.70;99.90;;;;;;5010981;28;20124;-93
2023/08/25 04:36:58;;;;;;;47.55;35.08;;;21.30;99.90;;;;;;5014826;28;20058;-93
2023/08/25 04:39:23;;;;;;;40.95;35.47;;;20.50;99.90;;;;;;5021544;28;20026;-94
2023/08/25 04:42:10;;;;;;;44.40;34.10;;;21.20;99.90;;;;;;5034107;28;20025;-94
2023/08/25 04:44:35;;;;;;;48.22;35.70;;;21.80;99.90;;;;;;5015028;28;20037;-94
2023/08/25 04:47:02;;;;;;;46.95;35.88;;;21.20;99.90;;;;;;5015277;28;20042;-94
2023/08/25 04:49:38;;;;;;;45.55;35.60;;;22.10;99.90;;;;;;5015906;28;20033;-95
2023/08/25 04:52:04;;;;;;;42.58;32.90;;;21.30;99.90;;;;;;5015078;28;20021;-94
2023/08/25 04:54:48;;;;;;;47.38;33.63;;;21.30;99.90;;;;;;4996139;28;20433;-94
2023/08/25 04:57:13;;;;;;;52.20;34.58;;;20.60;99.90;;;;;;4992825;28;20089;-94
2023/08/25 04:59:39;;;;;;;51.47;35.63;;;21.30;99.90;;;;;;5005504;28;20026;-93
2023/08/25 05:02:19;;;;;;;45.15;35.05;;;21.20;99.90;;;;;;4997067;28;20030;-94
2023/08/25 05:04:46;;;;;;;52.17;34.97;;;21.20;99.90;;;;;;4999039;28;20010;-95
2023/08/25 05:07:32;;;;;;;50.78;37.63;;;22.30;99.90;;;;;;4996396;28;20041;-93
2023/08/25 05:09:58;;;;;;;45.70;35.00;;;21.20;99.90;;;;;;5007325;28;20083;-94
2023/08/25 05:12:24;;;;;;;46.30;34.92;;;21.20;99.90;;;;;;5018028;28;20299;-94
2023/08/25 05:15:06;;;;;;;47.15;34.38;;;21.30;99.90;;;;;;5002295;28;20026;-93
2023/08/25 05:17:34;;;;;;;46.33;34.55;;;21.20;99.90;;;;;;4999782;28;20034;-93
2023/08/25 05:20:23;;;;;;;39.22;32.47;;;21.80;99.90;;;;;;4996545;28;20081;-94
2023/08/25 05:22:50;;;;;;;38.97;33.70;;;20.40;99.90;;;;;;4997481;28;20534;-93
2023/08/25 05:25:17;;;;;;;47.47;34.60;;;21.20;99.90;;;;;;5002866;28;20061;-95
2023/08/25 05:31:02;;;;;;;43.90;34.72;;;21.30;99.90;;;;;;4898937;29;20043;-91
2023/08/25 05:33:46;;;;;;;45.88;35.00;;;22.20;99.90;;;;;;4902602;29;20036;-89
2023/08/25 05:36:12;;;;;;;43.55;34.25;;;21.20;99.90;;;;;;4970073;28;20049;-90
2023/08/25 05:38:57;;;;;;;43.03;33.38;;;21.30;99.90;;;;;;4995816;28;20027;-90
2023/08/25 05:41:35;;;;;;;45.47;32.95;;;21.30;99.90;;;;;;4996732;28;20037;-91
2023/08/25 05:44:01;;;;;;;44.08;31.33;;;22.50;99.90;;;;;;4992812;28;20027;-89
2023/08/25 05:46:29;;;;;;;39.67;32.42;;;21.30;99.90;;;;;;5003088;28;20110;-91
2023/08/25 05:49:15;;;;;;;46.00;33.47;;;21.30;99.90;;;;;;5006051;28;20101;-90
2023/08/25 05:51:41;;;;;;;42.38;33.85;;;21.30;99.90;;;;;;5001237;28;20044;-90
2023/08/25 05:54:06;;;;;;;42.83;32.80;;;21.90;99.90;;;;;;4998961;28;20031;-89
2023/08/25 05:56:50;;;;;;;49.50;35.97;;;21.30;99.90;;;;;;4994183;28;20033;-92
2023/08/25 05:59:16;;;;;;;47.53;34.95;;;21.20;99.90;;;;;;4995251;28;20022;-88
2023/08/25 06:01:41;;;;;;;45.17;33.42;;;21.30;99.90;;;;;;4995698;28;20081;-88
2023/08/25 06:04:07;;;;;;;46.28;35.10;;;22.10;99.90;;;;;;5014996;28;20022;-89
2023/08/25 06:06:41;;;;;;;44.88;31.98;;;21.30;99.90;;;;;;5013318;28;20243;-88
2023/08/25 06:09:08;;;;;;;38.28;30.77;;;21.30;99.90;;;;;;5000050;28;20037;-87
2023/08/25 06:11:34;;;;;;;50.85;34.28;;;21.30;99.90;;;;;;4996710;28;20109;-88
2023/08/25 06:14:16;;;;;;;42.85;33.40;;;21.60;99.90;;;;;;4997117;28;20162;-88
2023/08/25 06:16:42;;;;;;;47.83;36.72;;;21.40;99.90;;;;;;5003891;28;20045;-87
2023/08/25 06:19:08;;;;;;;47.88;33.28;;;21.40;99.90;;;;;;5008360;28;20027;-87
2023/08/25 06:21:54;;;;;;;48.78;32.85;;;21.40;99.90;;;;;;5005353;28;20053;-88
2023/08/25 06:24:19;;;;;;;42.85;32.78;;;21.40;99.90;;;;;;5005590;28;20049;-88
2023/08/25 06:26:59;;;;;;;44.53;33.30;;;21.30;99.90;;;;;;5005939;28;20531;-88
2023/08/25 06:29:25;;;;;;;46.53;32.70;;;21.30;99.90;;;;;;5001536;28;20026;-85
2023/08/25 06:31:52;;;;;;;46.38;34.58;;;20.70;99.90;;;;;;4990132;28;20053;-91
2023/08/25 06:34:36;;;;;;;51.58;35.30;;;21.40;99.90;;;;;;4988838;28;20022;-92
2023/08/25 06:37:02;;;;;;;50.47;34.78;;;21.30;99.90;;;;;;5000777;28;20116;-91
2023/08/25 06:39:52;;;;;;;55.15;36.63;;;21.40;99.90;;;;;;4999347;28;20022;-92
2023/08/25 06:42:17;;;;;;;52.72;34.53;;;21.40;99.90;;;;;;5002098;28;20038;-91
2023/08/25 06:45:05;;;;;;;55.90;35.65;;;21.40;99.90;;;;;;4998076;28;20019;-89
2023/08/25 06:47:31;;;;;;;51.00;35.30;;;21.50;99.90;;;;;;5010367;28;20034;-89
2023/08/25 06:50:16;;;;;;;54.60;35.60;;;21.20;99.90;;;;;;5013823;28;20044;-92
2023/08/25 06:52:42;;;;;;;52.85;33.60;;;21.40;99.90;;;;;;4999957;28;20092;-91
2023/08/25 06:55:30;;;;;;;53.80;36.38;;;21.40;99.90;;;;;;5013876;28;20421;-89
2023/08/25 06:58:14;;;;;;;55.15;35.20;;;21.40;99.90;;;;;;5006421;28;20108;-88
2023/08/25 07:00:40;;;;;;;52.80;34.72;;;21.40;99.90;;;;;;5008328;28;20033;-89
2023/08/25 07:05:49;;;;;;;56.30;35.03;;;21.40;99.90;;;;;;5046925;23;20457;-88
2023/08/25 07:08:14;;;;;;;57.63;36.53;;;21.50;99.90;;;;;;4986949;28;20034;-93
2023/08/25 07:10:40;;;;;;;52.15;33.60;;;21.50;99.90;;;;;;4985283;28;20356;-93
2023/08/25 07:13:07;;;;;;;52.38;36.05;;;21.50;99.90;;;;;;4995021;28;20066;-92
2023/08/25 07:15:34;;;;;;;50.72;36.45;;;21.50;99.90;;;;;;4999079;28;20307;-90
2023/08/25 07:18:11;;;;;;;48.05;35.15;;;21.50;99.90;;;;;;4998683;28;20114;-93
2023/08/25 07:21:02;;;;;;;50.15;34.83;;;21.10;99.90;;;;;;4993845;28;20073;-87
2023/08/25 07:43:01;;;;;;;42.35;31.23;;;21.50;99.90;;;;;;4981960;23;20074;-95
2023/08/25 07:45:48;;;;;;;43.40;30.77;;;20.80;99.90;;;;;;4968028;28;20122;-93
2023/08/25 07:48:14;;;;;;;37.97;29.17;;;21.00;99.90;;;;;;4957074;29;20023;-93
2023/08/25 07:50:48;;;;;;;42.15;29.17;;;21.40;99.90;;;;;;4967790;28;20027;-89
2023/08/25 07:53:14;;;;;;;38.85;28.40;;;21.50;99.90;;;;;;4974270;28;20030;-89
2023/08/25 07:55:42;;;;;;;39.90;28.77;;;21.50;99.90;;;;;;4954948;29;20035;-91
2023/08/25 07:58:21;;;;;;;43.80;29.73;;;22.60;99.90;;;;;;4969872;28;20050;-90
2023/08/25 08:00:47;;;;;;;43.00;29.83;;;21.60;99.90;;;;;;5144549;23;20055;-88
2023/08/25 08:03:14;;;;;;;47.08;28.55;;;21.60;99.90;;;;;;4958008;28;20031;-89
2023/08/25 08:05:55;;;;;;;37.72;25.88;;;21.70;99.90;;;;;;4977389;23;20043;-90
2023/08/25 08:11:39;;;;;;;43.28;30.98;;;21.40;99.90;;;;;;5141100;23;20506;-89
2023/08/25 08:14:05;;;;;;;43.85;31.77;;;21.80;99.90;;;;;;4884763;29;20044;-91
2023/08/25 08:16:30;;;;;;;43.65;29.15;;;21.70;99.90;;;;;;4966721;28;20031;-89
2023/08/25 08:19:10;;;;;;;43.38;31.73;;;21.20;99.90;;;;;;4956102;29;20027;-87
2023/08/25 08:21:35;;;;;;;47.25;34.03;;;21.80;99.90;;;;;;4965656;23;20122;-88
2023/08/25 08:24:02;;;;;;;38.92;29.77;;;21.80;99.90;;;;;;4953349;29;20480;-90
2023/08/25 08:26:29;;;;;;;45.25;30.90;;;21.80;99.90;;;;;;4966103;28;20031;-90
2023/08/25 08:28:55;;;;;;;38.00;29.60;;;21.80;99.90;;;;;;4981090;28;20066;-88
2023/08/25 08:31:21;;;;;;;40.05;30.17;;;22.20;99.90;;;;;;4958309;28;20500;-88
2023/08/25 08:33:47;;;;;;;44.33;31.23;;;21.90;99.90;;;;;;4963915;28;20038;-90
2023/08/25 08:36:23;;;;;;;39.30;30.13;;;21.80;99.90;;;;;;4973208;28;20038;-89
2023/08/25 08:38:49;;;;;;;40.88;28.88;;;21.80;99.90;;;;;;4965919;28;20123;-89
2023/08/25 08:41:33;;;;;;;41.15;29.98;;;22.70;99.90;;;;;;4954302;28;20122;-89
2023/08/25 08:44:01;;;;;;;44.42;31.33;;;21.90;99.90;;;;;;4969942;28;20035;-88
2023/08/25 08:46:48;;;;;;;46.97;32.47;;;21.90;99.90;;;;;;4977318;28;20023;-85
2023/08/25 08:49:14;;;;;;;40.80;30.65;;;21.90;99.90;;;;;;4963879;28;20085;-86
2023/08/25 08:52:05;;;;;;;44.42;32.00;;;22.60;99.90;;;;;;4969546;28;20119;-93
2023/08/25 08:54:32;;;;;;;40.05;30.98;;;22.00;99.90;;;;;;4957646;28;20040;-91
2023/08/25 08:57:19;;;;;;;45.60;33.42;;;22.00;99.90;;;;;;4968804;28;20050;-91
2023/08/25 08:59:45;;;;;;;43.65;31.85;;;21.80;99.90;;;;;;4938502;29;20384;-87
2023/08/25 09:02:13;;;;;;;49.45;32.95;;;22.90;99.90;;;;;;4936310;28;20118;-86
2023/08/25 09:04:59;;;;;;;46.45;30.90;;;22.00;99.90;;;;;;4969961;28;20031;-87
2023/08/25 09:07:31;;;;;;;37.42;29.65;;;23.10;99.90;;;;;;4960225;28;20016;-92
2023/08/25 09:10:10;;;;;;;45.42;34.03;;;22.10;99.90;;;;;;4947034;29;20032;-91
2023/08/25 09:12:53;;;;;;;45.42;32.15;;;22.10;99.90;;;;;;4943290;28;20031;-90
2023/08/25 09:15:43;;;;;;;44.95;32.97;;;22.90;99.90;;;;;;4951104;29;20028;-91
2023/08/25 09:18:09;;;;;;;43.65;34.22;;;22.00;99.90;;;;;;4881894;29;20033;-90
2023/08/25 09:23:26;;;;;;;52.90;34.17;;;22.50;99.90;;;;;;4831720;29;20046;-88
2023/08/25 09:25:53;;;;;;;51.33;33.22;;;22.20;99.90;;;;;;4844818;29;20105;-90
2023/08/25 09:28:36;;;;;;;49.38;34.17;;;22.30;99.90;;;;;;4883702;29;20036;-92
2023/08/25 09:31:02;;;;;;;52.92;35.08;;;22.30;99.90;;;;;;4912749;29;20758;-84
2023/08/25 09:33:28;;;;;;;47.38;33.15;;;22.70;99.90;;;;;;4917042;29;20392;-85
2023/08/25 09:35:53;;;;;;;43.78;30.70;;;22.20;99.90;;;;;;4913470;29;20032;-83
2023/08/25 09:38:21;;;;;;;44.53;33.13;;;22.30;99.90;;;;;;4919569;29;20024;-86
2023/08/25 09:40:47;;;;;;;40.80;32.35;;;22.30;99.90;;;;;;4923018;29;20485;-88
2023/08/25 09:43:13;;;;;;;41.00;29.63;;;22.30;99.90;;;;;;4930330;29;20029;-92
2023/08/25 09:45:40;;;;;;;43.72;29.80;;;22.30;99.90;;;;;;4938369;29;20027;-89
2023/08/25 09:48:11;;;;;;;44.60;30.55;;;22.30;99.90;;;;;;4931750;29;20111;-92
2023/08/25 09:50:57;;;;;;;53.65;31.23;;;22.30;99.90;;;;;;5253167;23;20843;-91
2023/08/25 09:53:25;;;;;;;40.50;28.83;;;22.30;99.90;;;;;;4977066;28;20031;-86
2023/08/25 09:56:07;;;;;;;46.35;30.25;;;22.30;99.90;;;;;;4958382;29;20039;-86
2023/08/25 09:58:38;;;;;;;40.00;30.40;;;22.30;99.90;;;;;;4958702;28;20173;-87
2023/08/25 10:01:20;;;;;;;40.75;30.38;;;22.30;99.90;;;;;;4961220;28;20063;-87
2023/08/25 10:03:46;;;;;;;52.17;32.80;;;22.20;99.90;;;;;;4970193;28;20035;-86
2023/08/25 10:06:14;;;;;;;47.58;32.97;;;22.30;99.90;;;;;;4954093;29;20111;-85
2023/08/25 10:08:59;;;;;;;42.97;31.88;;;22.20;99.90;;;;;;4963158;28;20027;-86
2023/08/25 10:11:34;;;;;;;42.20;31.00;;;22.20;99.90;;;;;;4972996;28;20008;-83
2023/08/25 10:14:02;;;;;;;43.08;33.08;;;22.20;99.90;;;;;;4985589;28;20399;-85
2023/08/25 10:16:30;;;;;;;46.50;32.13;;;22.20;99.90;;;;;;4974451;28;20482;-84
2023/08/25 10:18:58;;;;;;;46.55;33.25;;;22.10;99.90;;;;;;4971013;28;20123;-84
2023/08/25 10:21:25;;;;;;;46.50;33.10;;;22.10;99.90;;;;;;4970512;28;20499;-87
2023/08/25 10:23:55;;;;;;;42.33;32.67;;;22.10;99.90;;;;;;4969590;28;20395;-86
2023/08/25 10:26:22;;;;;;;46.85;32.80;;;22.10;99.90;;;;;;4976154;28;20030;-85
2023/08/25 10:28:49;;;;;;;50.35;35.00;;;22.20;99.90;;;;;;4956964;28;20309;-84
2023/08/25 10:31:15;;;;;;;40.28;32.22;;;22.10;99.90;;;;;;4958744;28;20480;-86
2023/08/25 10:33:49;;;;;;;44.97;33.63;;;22.30;99.90;;;;;;4973643;28;20093;-84
2023/08/25 10:38:43;;;;;;;45.08;33.85;;;22.20;99.90;;;;;;4992280;23;20055;-85
2023/08/25 10:41:23;;;;;;;44.67;31.08;;;22.20;99.90;;;;;;4978188;28;20084;-84
2023/08/25 10:43:53;;;;;;;45.92;33.15;;;22.20;99.90;;;;;;4987479;28;20058;-84
2023/08/25 10:46:21;;;;;;;40.60;33.58;;;22.20;99.90;;;;;;4978354;28;20033;-86
2023/08/25 10:48:50;;;;;;;42.47;32.95;;;22.40;99.90;;;;;;5001031;28;20030;-86
2023/08/25 10:51:18;;;;;;;43.58;34.70;;;22.30;99.90;;;;;;4987037;28;20066;-86
2023/08/25 10:53:46;;;;;;;43.05;33.90;;;22.20;99.90;;;;;;4982356;28;20026;-84
2023/08/25 10:56:18;;;;;;;48.35;37.00;;;22.30;99.90;;;;;;4975713;28;20042;-84
2023/08/25 10:59:03;;;;;;;47.17;33.70;;;22.30;99.90;;;;;;4978077;28;20023;-84
2023/08/25 11:01:38;;;;;;;46.35;37.50;;;22.30;99.90;;;;;;4975146;28;20014;-85
2023/08/25 11:04:11;;;;;;;43.75;34.10;;;22.30;99.90;;;;;;4981227;28;20451;-84
2023/08/25 11:06:40;;;;;;;46.10;35.65;;;22.30;99.90;;;;;;4978750;28;20034;-85
2023/08/25 11:09:09;;;;;;;42.53;33.28;;;22.30;99.90;;;;;;4988169;28;20030;-84
2023/08/25 11:11:36;;;;;;;46.03;35.60;;;22.40;99.90;;;;;;4989226;28;20034;-84
2023/08/25 11:14:02;;;;;;;40.03;32.05;;;22.40;99.90;;;;;;4983446;28;20058;-84
2023/08/25 11:16:28;;;;;;;44.65;34.47;;;22.50;99.90;;;;;;4985686;28;20066;-84
2023/08/25 11:18:53;;;;;;;42.85;34.10;;;22.50;99.90;;;;;;4979361;28;20431;-85
2023/08/25 11:21:28;;;;;;;43.08;33.97;;;22.50;99.90;;;;;;4980785;28;20023;-84
2023/08/25 11:23:55;;;;;;;41.17;33.28;;;22.50;99.90;;;;;;4961626;28;20115;-84
2023/08/25 11:26:21;;;;;;;39.70;33.15;;;22.60;99.90;;;;;;4981317;28;20428;-85
2023/08/25 11:28:51;;;;;;;35.72;30.52;;;22.60;99.90;;;;;;4985766;28;20058;-85
2023/08/25 11:31:21;;;;;;;38.40;30.08;;;22.70;99.90;;;;;;4980492;28;20025;-84
2023/08/25 11:33:52;;;;;;;35.55;28.75;;;22.60;99.90;;;;;;4990512;28;20043;-85
2023/08/25 11:36:17;;;;;;;;;;;22.70;99.90;;;;;;4975449;28;20031;-84
2023/08/25 11:38:48;;;;;;;39.30;31.77;;;23.20;99.90;;;;;;4986532;28;19920;-85
2023/08/25 11:41:14;;;;;;;38.53;29.35;;;22.80;99.90;;;;;;4985497;28;20506;-84
2023/08/25 11:43:40;;;;;;;36.08;30.20;;;22.80;99.90;;;;;;4989754;28;20044;-84
2023/08/25 11:46:06;;;;;;;36.88;29.77;;;22.80;99.90;;;;;;4977138;28;20114;-84
2023/08/25 11:48:34;;;;;;;38.00;31.58;;;22.80;99.90;;;;;;4978810;28;20035;-84
2023/08/25 11:51:01;;;;;;;40.25;31.08;;;22.80;99.90;;;;;;4988681;28;20474;-84
2023/08/25 11:53:26;;;;;;;38.78;30.33;;;22.80;99.90;;;;;;4965181;28;20375;-84
2023/08/25 11:56:03;;;;;;;37.85;29.77;;;22.80;99.90;;;;;;4988483;28;20025;-85
2023/08/25 11:58:30;;;;;;;41.75;32.00;;;22.80;99.90;;;;;;4976099;28;20039;-84
2023/08/25 12:01:01;;;;;;;36.03;29.92;;;22.80;99.90;;;;;;4973938;28;20034;-85
2023/08/25 12:03:27;;;;;;;39.35;30.15;;;22.80;99.90;;;;;;4990994;28;20030;-84
2023/08/25 12:05:53;;;;;;;33.55;28.00;;;22.70;99.90;;;;;;4980038;28;20025;-84
2023/08/25 12:08:19;;;;;;;37.40;25.77;;;22.70;99.90;;;;;;4982559;28;20030;-84
2023/08/25 12:10:44;;;;;;;39.95;28.08;;;22.70;99.90;;;;;;4994227;28;20027;-85
2023/08/25 12:13:10;;;;;;;35.78;25.13;;;22.80;99.90;;;;;;4987521;28;20035;-85
2023/08/25 12:15:40;;;;;;;29.35;24.70;;;22.80;99.90;;;;;;4991831;28;20038;-84
2023/08/25 12:18:06;;;;;;;31.65;23.63;;;22.80;99.90;;;;;;4990697;28;20053;-82
2023/08/25 12:20:32;;;;;;;34.00;25.13;;;22.90;99.90;;;;;;4978300;28;20466;-85
2023/08/25 12:23:00;;;;;;;29.67;24.58;;;23.00;99.90;;;;;;4982954;28;20033;-85
2023/08/25 12:25:29;;;;;;;32.67;24.10;;;23.00;99.90;;;;;;4976146;28;20447;-85
2023/08/25 12:27:55;;;;;;;38.60;27.87;;;23.00;99.90;;;;;;4977873;28;20027;-85
2023/08/25 12:30:21;;;;;;;32.00;23.55;;;23.10;99.90;;;;;;4976437;28;20271;-86
2023/08/25 12:32:47;;;;;;;34.85;23.60;;;23.20;99.90;;;;;;4979434;28;20030;-85
2023/08/25 12:35:13;;;;;;;33.80;25.58;;;23.20;99.90;;;;;;4982633;28;20113;-85
2023/08/25 12:37:39;;;;;;;41.85;27.42;;;23.20;99.90;;;;;;4972178;28;20047;-86
2023/08/25 12:40:05;;;;;;;38.70;25.95;;;23.20;99.90;;;;;;4984656;28;20029;-88
2023/08/25 12:42:31;;;;;;;36.60;24.77;;;23.20;99.90;;;;;;4975673;28;20517;-85
2023/08/25 12:44:57;;;;;;;27.52;23.25;;;23.20;99.90;;;;;;4977713;28;20100;-86
2023/08/25 12:47:33;;;;;;;32.58;23.02;;;23.50;99.90;;;;;;4975140;28;20331;-85
2023/08/25 12:49:58;;;;;;;34.17;22.77;;;23.20;99.90;;;;;;4980394;28;20382;-82
2023/08/25 12:52:26;;;;;;;30.23;22.45;;;23.20;99.90;;;;;;4975777;28;20015;-82
2023/08/25 12:54:52;;;;;;;29.63;21.48;;;23.20;99.90;;;;;;4971184;28;20023;-80
2023/08/25 12:57:18;;;;;;;25.60;22.13;;;23.30;99.90;;;;;;4970963;28;20035;-86
2023/08/25 12:59:44;;;;;;;39.03;22.65;;;24.00;99.90;;;;;;4978685;28;20090;-86
2023/08/25 13:02:09;;;;;;;29.20;20.60;;;23.40;99.90;;;;;;4979871;28;20542;-86
2023/08/25 13:04:35;;;;;;;32.67;23.05;;;23.40;99.90;;;;;;4973384;28;20027;-83
2023/08/25 13:07:00;;;;;;;30.77;23.85;;;23.30;99.90;;;;;;4971962;28;20058;-81
2023/08/25 13:09:26;;;;;;;36.33;22.88;;;23.40;99.90;;;;;;4977077;28;20463;-83
2023/08/25 13:11:51;;;;;;;33.22;23.55;;;23.30;99.90;;;;;;4975350;28;20439;-84
2023/08/25 13:14:17;;;;;;;31.23;22.58;;;23.30;99.90;;;;;;4978750;28;20042;-83
2023/08/25 13:16:42;;;;;;;37.22;22.40;;;23.30;99.90;;;;;;4961549;28;20031;-84
2023/08/25 13:19:08;;;;;;;33.17;23.13;;;23.30;99.90;;;;;;4967856;28;20042;-85
2023/08/25 13:21:34;;;;;;;28.92;22.23;;;23.60;99.90;;;;;;4975724;28;20340;-84
2023/08/25 13:24:03;;;;;;;38.88;24.13;;;23.40;99.90;;;;;;4974727;28;20029;-85
2023/08/25 13:26:37;;;;;;;32.95;23.58;;;23.30;99.90;;;;;;4980699;28;20023;-85